Time;durP1;ratioP1;P1;durP2;ratioP2;P2;SDS_P1;SDS_P2;PMS_P1;PMS_P2;Temp;Humidity;BMP_temperature;BMP_pressure;BME280_temperature;BME280_humidity;BME280_pressure;Samples;Min_cycle;Max_cycle;Signal;HPM_P1;HPM_P2
2022/08/13 00:00:21;;;;;;;2.17;1.40;;;;;;;16.86;59.95;97541.31;18292376;32;20054;-62
2022/08/13 00:10:34;;;;;;;2.15;0.93;;;;;;;16.76;60.29;97541.59;18292568;32;20077;-62
2022/08/13 00:20:43;;;;;;;1.80;1.10;;;;;;;16.68;60.87;97532.25;18297093;32;20354;-62
2022/08/13 00:30:59;;;;;;;2.12;0.95;;;;;;;16.73;60.59;97531.28;18302531;32;20054;-62
2022/08/13 00:41:01;;;;;;;1.30;1.15;;;;;;;16.74;59.77;97522.78;18302117;32;20094;-62
2022/08/13 00:51:08;;;;;;;1.35;1.00;;;;;;;16.94;59.57;97529.66;18300867;32;20077;-62
2022/08/13 01:01:14;;;;;;;1.05;0.88;;;;;;;16.97;59.84;97521.97;18301170;32;20061;-62
2022/08/13 01:11:21;;;;;;;1.02;0.93;;;;;;;16.99;59.82;97514.25;18286529;32;20118;-62
2022/08/13 01:21:29;;;;;;;1.62;1.10;;;;;;;16.81;62.58;97513.34;18300421;32;20420;-62
2022/08/13 01:31:44;;;;;;;1.80;1.10;;;;;;;16.55;63.78;97512.12;18299371;32;20072;-62
2022/08/13 01:41:49;;;;;;;1.43;0.80;;;;;;;16.30;65.35;97497.19;18299235;32;20061;-62
2022/08/13 01:51:56;;;;;;;3.10;1.17;;;;;;;16.04;66.89;97505.19;18284968;32;20450;-62
2022/08/13 02:02:02;;;;;;;1.33;0.90;;;;;;;15.78;67.65;97503.03;18298400;32;20361;-62
2022/08/13 02:12:05;;;;;;;;;;;;;;;15.59;68.52;97514.91;18297831;32;20486;-62
2022/08/13 02:22:12;;;;;;;1.30;0.90;;;;;;;15.34;68.30;97504.56;18297727;32;19952;-62
2022/08/13 02:32:16;;;;;;;1.17;1.00;;;;;;;15.11;67.91;97520.03;18296606;32;20073;-62
2022/08/13 02:42:20;;;;;;;1.37;1.03;;;;;;;14.88;68.78;97523.47;18295150;32;20084;-62
2022/08/13 02:52:23;;;;;;;3.67;2.10;;;;;;;14.66;69.06;97518.69;18295288;32;20046;-62
2022/08/13 03:02:32;;;;;;;3.63;2.47;;;;;;;14.41;70.18;97519.91;18295066;32;20062;-62
2022/08/13 03:12:37;;;;;;;3.70;3.07;;;;;;;14.17;70.35;97515.44;18294854;32;20054;-62
2022/08/13 03:22:51;;;;;;;3.00;2.20;;;;;;;13.98;71.48;97528.25;18294373;32;20072;-62
2022/08/13 03:32:54;;;;;;;2.70;1.60;;;;;;;13.76;71.91;97526.94;18293834;32;20069;-62
2022/08/13 03:43:07;;;;;;;4.67;2.07;;;;;;;13.58;72.80;97534.00;18293943;32;20051;-62
2022/08/13 03:53:18;;;;;;;2.97;1.93;;;;;;;13.42;73.08;97529.88;18295342;32;20062;-62
2022/08/13 04:03:41;;;;;;;3.70;1.40;;;;;;;13.29;74.24;97534.06;18303941;32;20095;-62
2022/08/13 04:13:45;;;;;;;2.05;1.30;;;;;;;13.12;74.50;97538.06;18289345;32;20058;-62
2022/08/13 04:24:11;;;;;;;1.97;1.40;;;;;;;12.97;75.34;97533.63;18288121;32;20054;-64
2022/08/13 04:34:25;;;;;;;2.40;1.43;;;;;;;12.88;75.80;97544.31;18302307;32;20158;-64
2022/08/13 04:44:39;;;;;;;3.00;1.73;;;;;;;12.79;76.10;97548.75;18302113;32;20106;-64
2022/08/13 04:54:42;;;;;;;2.47;1.77;;;;;;;12.75;76.42;97552.31;18301133;32;20510;-64
2022/08/13 05:04:46;;;;;;;2.50;1.57;;;;;;;12.81;76.81;97562.00;18300436;32;20110;-64
2022/08/13 05:14:54;;;;;;;2.20;1.90;;;;;;;12.91;77.57;97555.66;18287574;32;20217;-64
2022/08/13 05:24:57;;;;;;;3.87;1.97;;;;;;;13.18;78.21;97564.06;18299769;32;20050;-64
2022/08/13 05:35:19;;;;;;;2.47;1.20;;;;;;;13.53;77.71;97572.09;18299550;32;20130;-64
2022/08/13 05:45:46;;;;;;;1.97;1.60;;;;;;;13.92;76.98;97556.59;18299013;32;20434;-64
2022/08/13 05:55:55;;;;;;;1.33;1.23;;;;;;;14.33;76.04;97564.13;18298432;32;20468;-64
2022/08/13 06:06:20;;;;;;;2.23;1.47;;;;;;;14.80;75.91;97569.59;18297962;32;20430;-64
2022/08/13 06:16:30;;;;;;;1.70;1.37;;;;;;;15.32;74.40;97574.88;18297565;32;20049;-64
2022/08/13 06:26:52;;;;;;;1.73;1.40;;;;;;;15.99;69.50;97563.41;18296810;32;20433;-64
2022/08/13 06:36:56;;;;;;;1.70;1.10;;;;;;;16.75;66.11;97565.34;18282643;32;20148;-62
2022/08/13 06:47:04;;;;;;;1.90;1.02;;;;;;;17.32;64.35;97582.19;18283026;32;20486;-62
2022/08/13 06:57:08;;;;;;;1.60;1.00;;;;;;;17.88;62.07;97586.03;18295615;32;20078;-62
2022/08/13 07:07:24;;;;;;;1.15;1.02;;;;;;;18.46;58.51;97570.25;18283023;32;20054;-62
2022/08/13 07:17:30;;;;;;;2.33;0.97;;;;;;;19.00;55.69;97557.28;18255913;32;20046;-62
2022/08/13 07:27:41;;;;;;;2.72;1.20;;;;;;;19.50;55.42;97555.75;18295881;32;20050;-62
2022/08/13 07:37:52;;;;;;;1.27;1.10;;;;;;;20.14;52.38;97573.88;18291460;32;20072;-62
2022/08/13 07:47:56;;;;;;;2.08;1.15;;;;;;;20.76;52.04;97566.72;18305153;32;20050;-63
2022/08/13 07:58:19;;;;;;;2.72;1.17;;;;;;;21.39;49.55;97571.16;18304082;32;20072;-63
2022/08/13 08:08:24;;;;;;;2.12;1.30;;;;;;;21.92;48.88;97570.44;18303317;32;20050;-63
2022/08/13 08:18:30;;;;;;;1.83;1.35;;;;;;;22.52;48.78;97565.09;18303190;32;20569;-63
2022/08/13 08:28:41;;;;;;;1.55;1.30;;;;;;;23.00;44.46;97568.72;18290291;32;20092;-63
2022/08/13 08:49:16;;;;;;;1.48;1.10;;;;;;;23.59;44.33;97579.25;18302290;32;20053;-63
2022/08/13 08:59:41;;;;;;;2.35;1.37;;;;;;;23.68;42.01;97582.59;18300916;32;20054;-62
2022/08/13 09:09:59;;;;;;;3.22;1.42;;;;;;;23.94;41.03;97589.50;18300656;32;20076;-63
2022/08/13 09:20:04;;;;;;;2.30;1.35;;;;;;;24.29;41.83;97591.47;18300275;32;20060;-63
2022/08/13 09:30:07;;;;;;;1.60;1.23;;;;;;;24.62;42.29;97579.91;18285386;32;20064;-63
2022/08/13 09:40:14;;;;;;;1.87;1.08;;;;;;;24.85;41.05;97576.38;18299195;32;20373;-63
2022/08/13 09:50:34;;;;;;;1.15;1.05;;;;;;;25.27;41.05;97575.53;18298238;32;20400;-63
2022/08/13 10:00:45;;;;;;;1.37;1.17;;;;;;;25.64;39.24;97574.97;18297828;32;20443;-62
2022/08/13 10:10:48;;;;;;;2.75;1.10;;;;;;;26.11;38.85;97574.84;18297747;32;20046;-62
2022/08/13 10:20:53;;;;;;;1.08;0.80;;;;;;;26.34;37.63;97561.69;18283721;32;20046;-62
2022/08/13 10:30:55;;;;;;;1.87;1.30;;;;;;;26.84;36.87;97566.22;18296873;32;20484;-62
2022/08/13 10:41:19;;;;;;;1.27;1.15;;;;;;;26.75;33.27;97574.03;18272309;32;20091;-62
2022/08/13 10:51:23;;;;;;;1.58;1.23;;;;;;;27.26;37.10;97547.53;18282095;32;20079;-62
2022/08/13 11:01:30;;;;;;;1.62;0.88;;;;;;;27.31;33.83;97534.13;18281319;32;20046;-63
2022/08/13 11:11:35;;;;;;;2.17;1.10;;;;;;;27.95;35.24;97544.06;18294948;32;20045;-62
2022/08/13 11:21:56;;;;;;;1.40;0.85;;;;;;;28.25;33.47;97526.38;18294602;32;20384;-63
2022/08/13 11:32:20;;;;;;;3.25;1.02;;;;;;;28.70;32.24;97526.91;18282955;32;20117;-63
2022/08/13 11:42:24;;;;;;;1.17;1.00;;;;;;;29.01;32.81;97520.97;18267546;32;20090;-63
2022/08/13 11:52:26;;;;;;;1.62;1.27;;;;;;;29.51;30.78;97507.06;18292869;32;20442;-62
2022/08/13 12:02:30;;;;;;;2.00;0.85;;;;;;;29.78;31.23;97503.03;18292903;32;20054;-62
2022/08/13 12:12:33;;;;;;;8.55;1.40;;;;;;;29.95;30.05;97499.41;18292805;32;20054;-63
2022/08/13 12:22:40;;;;;;;1.52;1.10;;;;;;;30.21;30.18;97495.31;18266013;32;20050;-63
2022/08/13 12:32:43;;;;;;;2.45;1.10;;;;;;;30.91;30.67;97488.16;18287847;32;20073;-63
2022/08/13 12:42:48;;;;;;;3.85;1.33;;;;;;;30.84;29.82;97483.41;18288534;32;20418;-62
2022/08/13 12:52:58;;;;;;;1.67;1.15;;;;;;;31.72;27.53;97473.84;18301391;32;20042;-62
2022/08/13 13:03:02;;;;;;;1.48;1.10;;;;;;;31.62;29.58;97471.19;18287494;32;20042;-62
2022/08/13 13:13:16;;;;;;;1.60;1.50;;;;;;;32.18;26.36;97451.34;18300791;32;20066;-62
2022/08/13 13:23:40;;;;;;;2.12;1.20;;;;;;;33.15;28.86;97451.91;18286379;32;20094;-62
2022/08/13 13:34:03;;;;;;;2.25;1.30;;;;;;;33.56;28.14;97447.97;18299617;32;20133;-62
2022/08/13 13:44:09;;;;;;;1.00;0.70;;;;;;;34.32;29.46;97452.09;18285163;32;20088;-63
2022/08/13 13:54:32;;;;;;;1.27;0.77;;;;;;;34.81;23.08;97446.56;18298366;32;20324;-63
2022/08/13 14:04:35;;;;;;;1.83;0.88;;;;;;;34.91;22.06;97444.72;18298210;32;20073;-62
2022/08/13 14:14:59;;;;;;;0.85;0.65;;;;;;;34.53;21.37;97445.19;18297673;32;20434;-62
2022/08/13 14:25:03;;;;;;;0.85;0.70;;;;;;;34.91;22.63;97430.66;18297128;32;20050;-62
2022/08/13 14:35:12;;;;;;;0.82;0.68;;;;;;;35.07;21.14;97441.06;18283235;32;20199;-62
2022/08/13 14:56:00;;;;;;;0.40;0.40;;;;;;;35.05;19.91;97424.66;18281719;32;20062;-62
2022/08/13 15:06:03;;;;;;;0.90;0.60;;;;;;;33.68;18.93;97408.06;18268226;32;20049;-62
2022/08/13 15:16:12;;;;;;;0.68;0.52;;;;;;;32.47;20.96;97400.59;18295410;32;20093;-62
2022/08/13 15:26:16;;;;;;;1.08;0.57;;;;;;;31.97;21.90;97400.06;18281324;32;20430;-62
2022/08/13 15:36:20;;;;;;;3.03;0.60;;;;;;;31.17;23.16;97377.06;18294162;32;20043;-62
2022/08/13 15:46:44;;;;;;;0.80;0.40;;;;;;;30.51;22.84;97357.28;18293705;32;20077;-62
2022/08/13 15:56:48;;;;;;;1.58;0.70;;;;;;;30.07;22.71;97359.56;18290109;32;20061;-62
2022/08/13 16:07:11;;;;;;;0.88;0.60;;;;;;;29.83;25.86;97352.12;18304094;32;20090;-62
2022/08/13 16:17:25;;;;;;;1.42;0.80;;;;;;;29.36;24.35;97339.19;18278435;32;20122;-62
2022/08/13 16:27:29;;;;;;;1.08;0.50;;;;;;;29.01;24.42;97329.75;18303110;32;20441;-62
2022/08/13 16:38:14;;;;;;;0.73;0.45;;;;;;;28.82;25.08;97319.84;18288596;32;20062;-62
2022/08/13 16:48:19;;;;;;;0.95;0.70;;;;;;;28.68;25.71;97306.75;18302121;32;20449;-62
2022/08/13 16:58:34;;;;;;;1.23;0.80;;;;;;;28.33;26.72;97296.44;18301336;32;20054;-62
2022/08/13 17:19:00;;;;;;;3.10;0.80;;;;;;;27.97;27.09;97291.62;18300261;32;20128;-62
2022/08/13 17:29:08;;;;;;;0.90;0.75;;;;;;;27.73;25.92;97288.37;18299733;32;20100;-62
2022/08/13 17:39:24;;;;;;;1.60;0.70;;;;;;;27.48;27.71;97284.78;18285615;32;20132;-62
2022/08/13 17:49:31;;;;;;;1.00;0.80;;;;;;;26.99;28.24;97281.38;18298926;32;20072;-62
2022/08/13 17:59:37;;;;;;;1.33;0.88;;;;;;;26.84;29.32;97277.72;18298608;32;20050;-62
2022/08/13 18:09:51;;;;;;;1.10;0.88;;;;;;;26.41;31.21;97278.22;18274293;32;20058;-62
2022/08/13 18:19:55;;;;;;;1.00;0.82;;;;;;;26.05;32.16;97283.44;18296728;32;20386;-62
2022/08/13 18:30:13;;;;;;;1.95;0.95;;;;;;;25.61;34.74;97311.88;18296787;32;20058;-62
2022/08/13 18:40:37;;;;;;;1.40;1.02;;;;;;;25.02;35.45;97304.03;18296574;32;20099;-62
2022/08/13 18:50:41;;;;;;;2.55;0.80;;;;;;;24.49;37.50;97307.59;18296048;32;20050;-62
2022/08/13 19:00:58;;;;;;;3.57;1.00;;;;;;;23.90;39.07;97307.81;18295305;32;20481;-62
2022/08/13 19:11:02;;;;;;;1.33;0.90;;;;;;;23.26;40.80;97316.41;18281963;32;20062;-62
2022/08/13 19:21:05;;;;;;;1.62;1.05;;;;;;;22.78;41.35;97318.50;18294658;32;20072;-62
2022/08/13 19:31:32;;;;;;;1.30;1.00;;;;;;;22.34;43.30;97336.00;18293751;32;20079;-62
2022/08/13 19:41:35;;;;;;;1.20;0.80;;;;;;;21.95;43.85;97339.31;18294064;32;20050;-62
2022/08/13 19:51:42;;;;;;;1.45;0.90;;;;;;;21.63;44.34;97322.72;18293397;32;20054;-62
2022/08/13 20:01:52;;;;;;;1.02;0.70;;;;;;;21.25;46.42;97362.50;18279671;32;20085;-62
2022/08/13 20:11:54;;;;;;;0.90;0.62;;;;;;;20.83;47.53;97368.31;18292480;32;20481;-62
2022/08/13 20:21:57;;;;;;;1.80;1.00;;;;;;;20.44;48.08;97370.56;18292860;32;20051;-62
2022/08/13 20:31:59;;;;;;;0.88;0.80;;;;;;;20.06;48.49;97356.00;18292190;32;20350;-62
2022/08/13 20:42:04;;;;;;;1.42;0.90;;;;;;;19.74;49.19;97352.12;18287642;32;20124;-62
2022/08/13 20:52:08;;;;;;;1.02;0.88;;;;;;;19.43;49.78;97336.91;18301967;32;20050;-62
2022/08/13 21:02:11;;;;;;;2.63;1.67;;;;;;;19.11;51.64;97352.97;18287266;32;20097;-62
2022/08/13 21:12:14;;;;;;;3.30;2.00;;;;;;;18.82;53.19;97345.59;18287166;32;20066;-62
2022/08/13 21:22:19;;;;;;;3.37;1.85;;;;;;;18.51;54.01;97366.69;18274167;32;20486;-62
2022/08/13 21:32:47;;;;;;;2.47;1.40;;;;;;;18.19;54.42;97347.03;18300030;32;20077;-62
2022/08/13 21:42:53;;;;;;;1.92;1.20;;;;;;;18.00;55.75;97339.19;18299519;32;20080;-62
2022/08/13 21:52:59;;;;;;;3.30;1.55;;;;;;;17.78;56.24;97353.88;18298349;32;20086;-62
2022/08/13 22:03:05;;;;;;;1.85;1.40;;;;;;;17.53;57.53;97339.94;18298412;32;20050;-62
2022/08/13 22:13:18;;;;;;;3.40;1.33;;;;;;;17.33;57.91;97332.38;18298065;32;20084;-62
2022/08/13 22:23:24;;;;;;;1.10;0.98;;;;;;;17.21;57.78;97317.47;18284195;32;20054;-62
2022/08/13 22:33:32;;;;;;;2.05;1.35;;;;;;;17.09;58.98;97323.56;18297228;32;20488;-61
2022/08/13 22:43:41;;;;;;;3.05;1.58;;;;;;;17.02;59.40;97322.41;18282619;32;20435;-62
2022/08/13 22:53:48;;;;;;;1.92;1.48;;;;;;;16.88;59.25;97328.81;18295762;32;20467;-62
2022/08/13 23:03:52;;;;;;;3.17;2.20;;;;;;;16.80;61.10;97345.19;18280929;32;20152;-62
2022/08/13 23:13:55;;;;;;;2.60;1.85;;;;;;;16.60;62.07;97333.75;18294861;32;20046;-62
2022/08/13 23:23:58;;;;;;;2.87;1.40;;;;;;;16.37;62.61;97308.47;18294627;32;20463;-62
2022/08/13 23:34:00;;;;;;;1.50;1.20;;;;;;;16.24;63.22;97324.66;18294176;32;20053;-62
2022/08/13 23:44:07;;;;;;;1.87;1.20;;;;;;;16.07;63.59;97300.03;18268471;32;20379;-62
2022/08/13 23:54:19;;;;;;;2.87;2.03;;;;;;;15.86;64.31;97286.97;18293319;32;20054;-62
